sensor_id;sensor_type;location;lat;lon;timestamp;pressure;altitude;pressure_sealevel;temperature;humidity
47726;BME280;33483;48.294;16.388;2024-02-16T00:01:03;99994.03;;;3.44;100.00
47726;BME280;33483;48.294;16.388;2024-02-16T00:03:36;100004.66;;;3.51;100.00
47726;BME280;33483;48.294;16.388;2024-02-16T00:06:03;99996.84;;;3.59;100.00
47726;BME280;33483;48.294;16.388;2024-02-16T00:08:31;99997.22;;;3.66;100.00
47726;BME280;33483;48.294;16.388;2024-02-16T00:10:58;99991.72;;;3.66;100.00
47726;BME280;33483;48.294;16.388;2024-02-16T00:13:26;99999.88;;;3.61;100.00
47726;BME280;33483;48.294;16.388;2024-02-16T00:15:54;99999.94;;;3.66;100.00
47726;BME280;33483;48.294;16.388;2024-02-16T00:18:21;99996.28;;;3.69;100.00
47726;BME280;33483;48.294;16.388;2024-02-16T00:20:48;99996.00;;;3.67;100.00
47726;BME280;33483;48.294;16.388;2024-02-16T00:23:16;99989.00;;;3.66;100.00
47726;BME280;33483;48.294;16.388;2024-02-16T00:25:45;99994.47;;;3.66;100.00
47726;BME280;33483;48.294;16.388;2024-02-16T00:28:13;99996.19;;;3.64;100.00
47726;BME280;33483;48.294;16.388;2024-02-16T00:30:40;99995.06;;;3.70;100.00
47726;BME280;33483;48.294;16.388;2024-02-16T00:33:08;99988.81;;;3.70;100.00
47726;BME280;33483;48.294;16.388;2024-02-16T00:35:35;99992.31;;;3.70;100.00
47726;BME280;33483;48.294;16.388;2024-02-16T00:38:02;99990.16;;;3.74;100.00
47726;BME280;33483;48.294;16.388;2024-02-16T00:40:29;99991.84;;;3.72;100.00
47726;BME280;33483;48.294;16.388;2024-02-16T00:43:01;99981.53;;;3.67;100.00
47726;BME280;33483;48.294;16.388;2024-02-16T00:45:28;99975.50;;;3.63;100.00
47726;BME280;33483;48.294;16.388;2024-02-16T00:47:55;99978.69;;;3.61;100.00
47726;BME280;33483;48.294;16.388;2024-02-16T00:50:24;99975.38;;;3.57;100.00
47726;BME280;33483;48.294;16.388;2024-02-16T00:52:52;99979.91;;;3.60;100.00
47726;BME280;33483;48.294;16.388;2024-02-16T00:55:19;99971.41;;;3.58;100.00
47726;BME280;33483;48.294;16.388;2024-02-16T00:57:47;99969.78;;;3.52;100.00
47726;BME280;33483;48.294;16.388;2024-02-16T01:00:14;99965.69;;;3.47;100.00
47726;BME280;33483;48.294;16.388;2024-02-16T01:02:45;99967.06;;;3.52;100.00
47726;BME280;33483;48.294;16.388;2024-02-16T01:05:12;99958.53;;;3.50;100.00
47726;BME280;33483;48.294;16.388;2024-02-16T01:07:42;99965.53;;;3.51;100.00
47726;BME280;33483;48.294;16.388;2024-02-16T01:10:09;99958.25;;;3.47;100.00
47726;BME280;33483;48.294;16.388;2024-02-16T01:12:39;99960.22;;;3.47;100.00
47726;BME280;33483;48.294;16.388;2024-02-16T01:15:06;99968.44;;;3.47;100.00
47726;BME280;33483;48.294;16.388;2024-02-16T01:17:39;99957.22;;;3.45;100.00
47726;BME280;33483;48.294;16.388;2024-02-16T01:20:06;99953.13;;;3.40;100.00
47726;BME280;33483;48.294;16.388;2024-02-16T01:22:39;99956.63;;;3.41;100.00
47726;BME280;33483;48.294;16.388;2024-02-16T01:25:06;99948.78;;;3.34;100.00
47726;BME280;33483;48.294;16.388;2024-02-16T01:27:35;99955.06;;;3.25;100.00
47726;BME280;33483;48.294;16.388;2024-02-16T01:30:02;99942.16;;;3.26;100.00
47726;BME280;33483;48.294;16.388;2024-02-16T01:32:30;99947.03;;;3.22;100.00
47726;BME280;33483;48.294;16.388;2024-02-16T01:34:57;99945.13;;;3.13;100.00
47726;BME280;33483;48.294;16.388;2024-02-16T01:37:25;99951.50;;;3.10;100.00
47726;BME280;33483;48.294;16.388;2024-02-16T01:39:52;99946.22;;;3.07;100.00
47726;BME280;33483;48.294;16.388;2024-02-16T01:42:20;99945.94;;;3.05;100.00
47726;BME280;33483;48.294;16.388;2024-02-16T01:44:47;99945.31;;;3.10;100.00
47726;BME280;33483;48.294;16.388;2024-02-16T01:47:14;99931.97;;;3.03;100.00
47726;BME280;33483;48.294;16.388;2024-02-16T01:49:42;99937.25;;;3.06;100.00
47726;BME280;33483;48.294;16.388;2024-02-16T01:52:09;99936.50;;;3.06;100.00
47726;BME280;33483;48.294;16.388;2024-02-16T01:54:38;99940.47;;;3.05;100.00
47726;BME280;33483;48.294;16.388;2024-02-16T01:57:06;99927.13;;;2.98;100.00
47726;BME280;33483;48.294;16.388;2024-02-16T01:59:34;99938.06;;;2.98;100.00
47726;BME280;33483;48.294;16.388;2024-02-16T02:02:04;99934.09;;;2.99;100.00
47726;BME280;33483;48.294;16.388;2024-02-16T02:04:31;99930.59;;;2.98;100.00
47726;BME280;33483;48.294;16.388;2024-02-16T02:06:58;99928.69;;;2.90;100.00
47726;BME280;33483;48.294;16.388;2024-02-16T02:09:25;99925.59;;;2.97;100.00
47726;BME280;33483;48.294;16.388;2024-02-16T02:11:55;99922.31;;;2.93;100.00
47726;BME280;33483;48.294;16.388;2024-02-16T02:14:22;99916.34;;;2.94;100.00
47726;BME280;33483;48.294;16.388;2024-02-16T02:16:50;99902.59;;;2.80;100.00
47726;BME280;33483;48.294;16.388;2024-02-16T02:19:24;99907.00;;;2.77;100.00
47726;BME280;33483;48.294;16.388;2024-02-16T02:21:52;99895.31;;;2.77;100.00
47726;BME280;33483;48.294;16.388;2024-02-16T02:24:19;99897.47;;;2.73;100.00
47726;BME280;33483;48.294;16.388;2024-02-16T02:26:48;99904.66;;;2.70;100.00
47726;BME280;33483;48.294;16.388;2024-02-16T02:29:15;99892.94;;;2.70;100.00
47726;BME280;33483;48.294;16.388;2024-02-16T02:31:42;99889.25;;;2.73;100.00
47726;BME280;33483;48.294;16.388;2024-02-16T02:34:09;99886.88;;;2.66;100.00
47726;BME280;33483;48.294;16.388;2024-02-16T02:36:37;99887.81;;;2.63;100.00
47726;BME280;33483;48.294;16.388;2024-02-16T02:39:04;99886.09;;;2.65;100.00
47726;BME280;33483;48.294;16.388;2024-02-16T02:41:33;99884.47;;;2.59;100.00
47726;BME280;33483;48.294;16.388;2024-02-16T02:44:02;99883.09;;;2.63;100.00
47726;BME280;33483;48.294;16.388;2024-02-16T02:46:30;99878.50;;;2.69;100.00
47726;BME280;33483;48.294;16.388;2024-02-16T02:48:56;99875.00;;;2.69;100.00
47726;BME280;33483;48.294;16.388;2024-02-16T02:51:24;99881.06;;;2.73;100.00
47726;BME280;33483;48.294;16.388;2024-02-16T02:53:51;99875.00;;;2.69;100.00
47726;BME280;33483;48.294;16.388;2024-02-16T02:56:21;99872.44;;;2.65;100.00
47726;BME280;33483;48.294;16.388;2024-02-16T02:58:48;99888.22;;;2.70;100.00
47726;BME280;33483;48.294;16.388;2024-02-16T03:01:15;99876.53;;;2.70;100.00
47726;BME280;33483;48.294;16.388;2024-02-16T03:03:42;99871.34;;;2.72;100.00
47726;BME280;33483;48.294;16.388;2024-02-16T03:06:12;99871.81;;;2.70;100.00
47726;BME280;33483;48.294;16.388;2024-02-16T03:08:40;99875.69;;;2.78;100.00
47726;BME280;33483;48.294;16.388;2024-02-16T03:11:08;99871.59;;;2.74;100.00
47726;BME280;33483;48.294;16.388;2024-02-16T03:13:35;99874.47;;;2.79;100.00
47726;BME280;33483;48.294;16.388;2024-02-16T03:16:02;99881.09;;;2.64;100.00
47726;BME280;33483;48.294;16.388;2024-02-16T03:18:32;99873.91;;;2.75;100.00
47726;BME280;33483;48.294;16.388;2024-02-16T03:21:00;99871.59;;;2.74;100.00
47726;BME280;33483;48.294;16.388;2024-02-16T03:23:28;99881.34;;;2.75;100.00
47726;BME280;33483;48.294;16.388;2024-02-16T03:25:56;99876.47;;;2.79;100.00
47726;BME280;33483;48.294;16.388;2024-02-16T03:28:23;99872.19;;;2.78;100.00
47726;BME280;33483;48.294;16.388;2024-02-16T03:30:52;99874.06;;;2.72;100.00
47726;BME280;33483;48.294;16.388;2024-02-16T03:33:20;99879.91;;;2.65;100.00
47726;BME280;33483;48.294;16.388;2024-02-16T03:35:48;99882.63;;;2.65;100.00
47726;BME280;33483;48.294;16.388;2024-02-16T03:38:17;99874.44;;;2.65;100.00
47726;BME280;33483;48.294;16.388;2024-02-16T03:40:45;99873.06;;;2.60;100.00
47726;BME280;33483;48.294;16.388;2024-02-16T03:43:12;99881.09;;;2.64;100.00
47726;BME280;33483;48.294;16.388;2024-02-16T03:45:39;99882.84;;;2.52;100.00
47726;BME280;33483;48.294;16.388;2024-02-16T03:48:06;99873.03;;;2.46;100.00
47726;BME280;33483;48.294;16.388;2024-02-16T03:50:33;99882.03;;;2.37;100.00
47726;BME280;33483;48.294;16.388;2024-02-16T03:53:02;99873.22;;;2.33;100.00
47726;BME280;33483;48.294;16.388;2024-02-16T03:55:29;99883.72;;;2.25;100.00
47726;BME280;33483;48.294;16.388;2024-02-16T03:57:58;99890.72;;;2.26;100.00
47726;BME280;33483;48.294;16.388;2024-02-16T04:00:25;99888.22;;;2.38;100.00
47726;BME280;33483;48.294;16.388;2024-02-16T04:02:56;99882.47;;;2.36;100.00
47726;BME280;33483;48.294;16.388;2024-02-16T04:05:24;99880.22;;;2.25;100.00
47726;BME280;33483;48.294;16.388;2024-02-16T04:07:55;99888.50;;;2.16;100.00
47726;BME280;33483;48.294;16.388;2024-02-16T04:10:22;99884.06;;;2.18;100.00
47726;BME280;33483;48.294;16.388;2024-02-16T04:12:49;99886.63;;;2.22;100.00
47726;BME280;33483;48.294;16.388;2024-02-16T04:15:16;99886.03;;;2.18;100.00
47726;BME280;33483;48.294;16.388;2024-02-16T04:17:43;99893.81;;;2.19;100.00
47726;BME280;33483;48.294;16.388;2024-02-16T04:20:11;99902.25;;;2.30;100.00
47726;BME280;33483;48.294;16.388;2024-02-16T04:22:38;99898.00;;;2.29;100.00
47726;BME280;33483;48.294;16.388;2024-02-16T04:25:05;99907.00;;;2.21;100.00
47726;BME280;33483;48.294;16.388;2024-02-16T04:27:35;99909.59;;;2.15;100.00
47726;BME280;33483;48.294;16.388;2024-02-16T04:30:03;99905.41;;;2.05;100.00
47726;BME280;33483;48.294;16.388;2024-02-16T04:32:31;99908.91;;;1.97;100.00
47726;BME280;33483;48.294;16.388;2024-02-16T04:34:58;99908.28;;;2.02;100.00
47726;BME280;33483;48.294;16.388;2024-02-16T04:37:28;99914.22;;;2.00;100.00
47726;BME280;33483;48.294;16.388;2024-02-16T04:39:58;99907.53;;;2.01;100.00
47726;BME280;33483;48.294;16.388;2024-02-16T04:42:25;99907.81;;;2.03;100.00
47726;BME280;33483;48.294;16.388;2024-02-16T04:44:52;99914.94;;;2.10;100.00
47726;BME280;33483;48.294;16.388;2024-02-16T04:47:19;99913.38;;;2.18;100.00
47726;BME280;33483;48.294;16.388;2024-02-16T04:49:49;99912.00;;;2.22;100.00
47726;BME280;33483;48.294;16.388;2024-02-16T04:52:16;99906.84;;;2.24;100.00
47726;BME280;33483;48.294;16.388;2024-02-16T04:54:46;99909.41;;;2.28;100.00
47726;BME280;33483;48.294;16.388;2024-02-16T04:57:13;99906.81;;;2.34;100.00
47726;BME280;33483;48.294;16.388;2024-02-16T04:59:41;99904.34;;;2.36;100.00
47726;BME280;33483;48.294;16.388;2024-02-16T05:02:08;99904.00;;;2.43;100.00
47726;BME280;33483;48.294;16.388;2024-02-16T05:04:35;99900.06;;;2.44;100.00
47726;BME280;33483;48.294;16.388;2024-02-16T05:07:02;99899.13;;;2.47;100.00
47726;BME280;33483;48.294;16.388;2024-02-16T05:09:31;99895.63;;;2.46;100.00
47726;BME280;33483;48.294;16.388;2024-02-16T05:11:59;99902.63;;;2.47;100.00
47726;BME280;33483;48.294;16.388;2024-02-16T05:14:26;99900.25;;;2.40;100.00
47726;BME280;33483;48.294;16.388;2024-02-16T05:16:54;99896.47;;;2.28;100.00
47726;BME280;33483;48.294;16.388;2024-02-16T05:19:25;99899.19;;;2.38;100.00
47726;BME280;33483;48.294;16.388;2024-02-16T05:21:52;99900.25;;;2.40;100.00
47726;BME280;33483;48.294;16.388;2024-02-16T05:24:20;99898.53;;;2.43;100.00
47726;BME280;33483;48.294;16.388;2024-02-16T05:26:47;99899.78;;;2.42;100.00
47726;BME280;33483;48.294;16.388;2024-02-16T05:29:15;99902.22;;;2.40;100.00
47726;BME280;33483;48.294;16.388;2024-02-16T05:31:42;99901.00;;;2.41;100.00
47726;BME280;33483;48.294;16.388;2024-02-16T05:34:09;99901.28;;;2.43;100.00
47726;BME280;33483;48.294;16.388;2024-02-16T05:36:36;99898.28;;;2.41;100.00
47726;BME280;33483;48.294;16.388;2024-02-16T05:39:04;99897.97;;;2.39;100.00
47726;BME280;33483;48.294;16.388;2024-02-16T05:41:48;99903.75;;;2.41;100.00
47726;BME280;33483;48.294;16.388;2024-02-16T05:44:15;99910.41;;;2.40;100.00
47726;BME280;33483;48.294;16.388;2024-02-16T05:46:43;99904.66;;;2.38;100.00
47726;BME280;33483;48.294;16.388;2024-02-16T05:49:11;99905.25;;;2.42;100.00
47726;BME280;33483;48.294;16.388;2024-02-16T05:51:38;99902.97;;;2.40;100.00
47726;BME280;33483;48.294;16.388;2024-02-16T05:54:28;99904.66;;;2.38;100.00
47726;BME280;33483;48.294;16.388;2024-02-16T05:56:58;99905.06;;;2.45;100.00
47726;BME280;33483;48.294;16.388;2024-02-16T05:59:25;99907.34;;;2.47;100.00
47726;BME280;33483;48.294;16.388;2024-02-16T06:01:53;99901.28;;;2.43;100.00
47726;BME280;33483;48.294;16.388;2024-02-16T06:04:23;99911.66;;;2.39;100.00
47726;BME280;33483;48.294;16.388;2024-02-16T06:06:50;99907.25;;;2.32;100.00
47726;BME280;33483;48.294;16.388;2024-02-16T06:09:19;99907.41;;;2.28;100.00
47726;BME280;33483;48.294;16.388;2024-02-16T06:11:46;99907.13;;;2.26;100.00
47726;BME280;33483;48.294;16.388;2024-02-16T06:14:16;99903.03;;;2.22;100.00
47726;BME280;33483;48.294;16.388;2024-02-16T06:16:46;99906.88;;;2.15;100.00
47726;BME280;33483;48.294;16.388;2024-02-16T06:19:13;99915.22;;;2.21;100.00
47726;BME280;33483;48.294;16.388;2024-02-16T06:21:41;99914.88;;;2.28;100.00
47726;BME280;33483;48.294;16.388;2024-02-16T06:24:08;99912.56;;;2.36;100.00
47726;BME280;33483;48.294;16.388;2024-02-16T06:26:38;99913.06;;;2.58;100.00
47726;BME280;33483;48.294;16.388;2024-02-16T06:29:05;99919.59;;;2.84;100.00
47726;BME280;33483;48.294;16.388;2024-02-16T06:31:32;99919.25;;;2.91;100.00
47726;BME280;33483;48.294;16.388;2024-02-16T06:34:00;99925.13;;;3.22;100.00
47726;BME280;33483;48.294;16.388;2024-02-16T06:36:27;99928.19;;;3.38;100.00
47726;BME280;33483;48.294;16.388;2024-02-16T06:38:56;99932.47;;;3.54;100.00
47726;BME280;33483;48.294;16.388;2024-02-16T06:41:23;99937.03;;;3.57;100.00
47726;BME280;33483;48.294;16.388;2024-02-16T06:43:50;99938.91;;;3.66;100.00
47726;BME280;33483;48.294;16.388;2024-02-16T06:46:17;99944.59;;;3.77;100.00
47726;BME280;33483;48.294;16.388;2024-02-16T06:48:45;99950.94;;;4.12;100.00
47726;BME280;33483;48.294;16.388;2024-02-16T06:51:11;99955.97;;;4.77;100.00
47726;BME280;33483;48.294;16.388;2024-02-16T06:53:40;99957.09;;;5.91;100.00
47726;BME280;33483;48.294;16.388;2024-02-16T06:56:07;99965.34;;;6.79;100.00
47726;BME280;33483;48.294;16.388;2024-02-16T06:58:35;99968.69;;;7.47;100.00
47726;BME280;33483;48.294;16.388;2024-02-16T07:01:03;99974.44;;;8.52;100.00
47726;BME280;33483;48.294;16.388;2024-02-16T07:03:31;99978.28;;;9.34;100.00
47726;BME280;33483;48.294;16.388;2024-02-16T07:05:58;99980.81;;;10.30;100.00
47726;BME280;33483;48.294;16.388;2024-02-16T07:08:25;99987.44;;;11.29;100.00
47726;BME280;33483;48.294;16.388;2024-02-16T07:10:53;99991.38;;;12.32;100.00
47726;BME280;33483;48.294;16.388;2024-02-16T07:13:21;99993.03;;;12.85;100.00
47726;BME280;33483;48.294;16.388;2024-02-16T07:15:49;100001.25;;;13.48;89.70
47726;BME280;33483;48.294;16.388;2024-02-16T07:18:18;99999.75;;;14.41;90.02
47726;BME280;33483;48.294;16.388;2024-02-16T07:20:45;99994.50;;;14.58;75.06
47726;BME280;33483;48.294;16.388;2024-02-16T07:23:17;99995.88;;;15.13;73.97
47726;BME280;33483;48.294;16.388;2024-02-16T07:25:44;100006.16;;;15.82;68.30
47726;BME280;33483;48.294;16.388;2024-02-16T07:28:13;100003.16;;;15.72;61.02
47726;BME280;33483;48.294;16.388;2024-02-16T07:30:40;100006.34;;;16.35;63.60
47726;BME280;33483;48.294;16.388;2024-02-16T07:33:10;100014.06;;;16.79;57.34
47726;BME280;33483;48.294;16.388;2024-02-16T07:35:37;100008.66;;;16.81;58.98
47726;BME280;33483;48.294;16.388;2024-02-16T07:38:05;100015.28;;;16.33;57.33
47726;BME280;33483;48.294;16.388;2024-02-16T07:40:32;100012.84;;;16.37;56.47
47726;BME280;33483;48.294;16.388;2024-02-16T07:43:00;100015.09;;;16.39;57.62
47726;BME280;33483;48.294;16.388;2024-02-16T07:45:27;100013.84;;;16.47;56.24
47726;BME280;33483;48.294;16.388;2024-02-16T07:47:56;100012.56;;;16.63;53.77
47726;BME280;33483;48.294;16.388;2024-02-16T07:50:23;100005.78;;;17.42;54.13
47726;BME280;33483;48.294;16.388;2024-02-16T07:52:50;100022.19;;;18.15;49.26
47726;BME280;33483;48.294;16.388;2024-02-16T07:55:17;100013.75;;;17.75;49.54
47726;BME280;33483;48.294;16.388;2024-02-16T07:57:47;100017.09;;;17.81;49.80
47726;BME280;33483;48.294;16.388;2024-02-16T08:00:14;100025.03;;;18.47;48.02
47726;BME280;33483;48.294;16.388;2024-02-16T08:02:43;100026.28;;;18.54;47.44
47726;BME280;33483;48.294;16.388;2024-02-16T08:05:10;100019.81;;;19.18;48.37
47726;BME280;33483;48.294;16.388;2024-02-16T08:07:40;100019.72;;;19.25;46.36
47726;BME280;33483;48.294;16.388;2024-02-16T08:10:14;100025.56;;;19.20;44.83
47726;BME280;33483;48.294;16.388;2024-02-16T08:12:41;100024.84;;;19.19;44.28
47726;BME280;33483;48.294;16.388;2024-02-16T08:15:08;100027.94;;;19.31;44.18
47726;BME280;33483;48.294;16.388;2024-02-16T08:17:38;100016.00;;;19.05;44.71
47726;BME280;33483;48.294;16.388;2024-02-16T08:20:06;100016.09;;;17.94;45.77
47726;BME280;33483;48.294;16.388;2024-02-16T08:22:40;100009.72;;;17.31;45.94
47726;BME280;33483;48.294;16.388;2024-02-16T08:25:10;99994.47;;;16.87;47.33
47726;BME280;33483;48.294;16.388;2024-02-16T08:27:37;99996.69;;;16.51;48.42
47726;BME280;33483;48.294;16.388;2024-02-16T08:30:05;100001.06;;;16.16;49.64
47726;BME280;33483;48.294;16.388;2024-02-16T08:32:33;100000.63;;;16.55;48.66
47726;BME280;33483;48.294;16.388;2024-02-16T08:35:00;99998.81;;;16.15;50.66
47726;BME280;33483;48.294;16.388;2024-02-16T08:37:28;100002.06;;;14.71;52.79
47726;BME280;33483;48.294;16.388;2024-02-16T08:39:55;99996.41;;;14.63;54.16
47726;BME280;33483;48.294;16.388;2024-02-16T08:42:22;100000.03;;;14.17;56.43
47726;BME280;33483;48.294;16.388;2024-02-16T08:44:50;99998.56;;;13.17;60.38
47726;BME280;33483;48.294;16.388;2024-02-16T08:47:18;99995.19;;;12.92;63.68
47726;BME280;33483;48.294;16.388;2024-02-16T08:49:45;99990.41;;;12.61;65.83
47726;BME280;33483;48.294;16.388;2024-02-16T08:52:13;99988.22;;;12.41;67.93
47726;BME280;33483;48.294;16.388;2024-02-16T08:54:42;99988.66;;;11.95;71.16
47726;BME280;33483;48.294;16.388;2024-02-16T08:57:09;99988.28;;;12.04;73.35
47726;BME280;33483;48.294;16.388;2024-02-16T08:59:39;99992.84;;;12.01;74.58
47726;BME280;33483;48.294;16.388;2024-02-16T09:02:06;99985.56;;;11.98;74.39
47726;BME280;33483;48.294;16.388;2024-02-16T09:04:34;99982.72;;;11.67;77.97
47726;BME280;33483;48.294;16.388;2024-02-16T09:07:01;99982.28;;;11.81;76.96
47726;BME280;33483;48.294;16.388;2024-02-16T09:09:31;99977.91;;;11.67;77.99
47726;BME280;33483;48.294;16.388;2024-02-16T09:11:58;99987.06;;;11.81;77.18
47726;BME280;33483;48.294;16.388;2024-02-16T09:14:25;99975.06;;;11.73;78.26
47726;BME280;33483;48.294;16.388;2024-02-16T09:16:53;99979.44;;;11.87;78.61
47726;BME280;33483;48.294;16.388;2024-02-16T09:19:20;99992.31;;;11.84;77.43
47726;BME280;33483;48.294;16.388;2024-02-16T09:21:48;99991.72;;;11.91;78.43
47726;BME280;33483;48.294;16.388;2024-02-16T09:24:16;99980.47;;;12.02;77.44
47726;BME280;33483;48.294;16.388;2024-02-16T09:26:45;99988.25;;;12.22;76.77
47726;BME280;33483;48.294;16.388;2024-02-16T09:29:13;99994.09;;;12.19;75.63
47726;BME280;33483;48.294;16.388;2024-02-16T09:31:41;99997.19;;;12.34;73.69
47726;BME280;33483;48.294;16.388;2024-02-16T09:34:08;99999.53;;;12.43;77.02
47726;BME280;33483;48.294;16.388;2024-02-16T09:36:36;100005.00;;;12.67;73.00
47726;BME280;33483;48.294;16.388;2024-02-16T09:39:04;100000.47;;;12.64;72.77
47726;BME280;33483;48.294;16.388;2024-02-16T09:41:34;99994.75;;;12.43;72.38
47726;BME280;33483;48.294;16.388;2024-02-16T09:44:05;99992.44;;;12.61;73.00
47726;BME280;33483;48.294;16.388;2024-02-16T09:46:34;100000.47;;;12.64;70.95
47726;BME280;33483;48.294;16.388;2024-02-16T09:49:02;99990.34;;;12.80;71.02
47726;BME280;33483;48.294;16.388;2024-02-16T09:51:37;99988.75;;;12.84;70.80
47726;BME280;33483;48.294;16.388;2024-02-16T09:54:05;99989.06;;;12.81;70.36
47726;BME280;33483;48.294;16.388;2024-02-16T09:56:34;99996.28;;;13.02;70.37
47726;BME280;33483;48.294;16.388;2024-02-16T09:59:01;100000.81;;;13.05;69.70
47726;BME280;33483;48.294;16.388;2024-02-16T10:01:35;99994.25;;;13.03;68.09
47726;BME280;33483;48.294;16.388;2024-02-16T10:04:07;100007.25;;;13.26;68.71
47726;BME280;33483;48.294;16.388;2024-02-16T10:06:53;100001.44;;;13.11;68.24
47726;BME280;33483;48.294;16.388;2024-02-16T10:09:24;99997.06;;;13.29;67.80
47726;BME280;33483;48.294;16.388;2024-02-16T10:11:52;100013.84;;;13.23;66.92
47726;BME280;33483;48.294;16.388;2024-02-16T10:14:36;100002.00;;;13.36;68.44
47726;BME280;33483;48.294;16.388;2024-02-16T10:17:08;100005.94;;;13.27;66.46
47726;BME280;33483;48.294;16.388;2024-02-16T10:19:36;100002.31;;;13.32;66.91
47726;BME280;33483;48.294;16.388;2024-02-16T10:22:12;99997.47;;;13.20;66.99
47726;BME280;33483;48.294;16.388;2024-02-16T10:24:40;99999.44;;;13.25;66.93
47726;BME280;33483;48.294;16.388;2024-02-16T10:27:16;99993.09;;;13.24;67.52
47726;BME280;33483;48.294;16.388;2024-02-16T10:29:44;99998.44;;;13.35;67.13
47726;BME280;33483;48.294;16.388;2024-02-16T10:32:13;99997.63;;;13.40;66.65
47726;BME280;33483;48.294;16.388;2024-02-16T10:34:40;100001.03;;;13.46;65.74
47726;BME280;33483;48.294;16.388;2024-02-16T10:37:08;99985.19;;;13.28;66.28
47726;BME280;33483;48.294;16.388;2024-02-16T10:39:35;100002.84;;;13.44;66.54
47726;BME280;33483;48.294;16.388;2024-02-16T10:42:06;99993.72;;;13.70;66.50
47726;BME280;33483;48.294;16.388;2024-02-16T10:44:33;99996.00;;;13.58;64.92
47726;BME280;33483;48.294;16.388;2024-02-16T10:47:02;99990.38;;;13.84;66.17
47726;BME280;33483;48.294;16.388;2024-02-16T10:49:31;100000.22;;;13.85;63.96
47726;BME280;33483;48.294;16.388;2024-02-16T10:51:59;99991.75;;;13.78;64.95
47726;BME280;33483;48.294;16.388;2024-02-16T10:54:29;99985.63;;;13.92;64.30
47726;BME280;33483;48.294;16.388;2024-02-16T10:56:57;99977.69;;;13.96;64.15
47726;BME280;33483;48.294;16.388;2024-02-16T10:59:24;99976.72;;;13.94;63.35
47726;BME280;33483;48.294;16.388;2024-02-16T11:01:59;99976.22;;;13.82;64.19
47726;BME280;33483;48.294;16.388;2024-02-16T11:04:35;99977.97;;;14.06;63.96
47726;BME280;33483;48.294;16.388;2024-02-16T11:07:09;99970.06;;;13.97;64.00
47726;BME280;33483;48.294;16.388;2024-02-16T11:09:39;99973.72;;;14.05;64.59
47726;BME280;33483;48.294;16.388;2024-02-16T11:12:07;99973.94;;;13.94;63.98
47726;BME280;33483;48.294;16.388;2024-02-16T11:14:38;99971.31;;;14.09;63.77
47726;BME280;33483;48.294;16.388;2024-02-16T11:17:09;99987.56;;;14.31;64.26
47726;BME280;33483;48.294;16.388;2024-02-16T11:19:42;99985.00;;;14.33;62.97
47726;BME280;33483;48.294;16.388;2024-02-16T11:22:10;99983.69;;;14.34;63.90
47726;BME280;33483;48.294;16.388;2024-02-16T11:24:48;99989.91;;;14.40;63.20
47726;BME280;33483;48.294;16.388;2024-02-16T11:27:16;99969.19;;;14.35;63.02
47726;BME280;33483;48.294;16.388;2024-02-16T11:29:47;99976.09;;;14.21;61.97
47726;BME280;33483;48.294;16.388;2024-02-16T11:32:20;100000.47;;;14.21;62.57
47726;BME280;33483;48.294;16.388;2024-02-16T11:34:48;99976.63;;;14.20;63.38
47726;BME280;33483;48.294;16.388;2024-02-16T11:37:18;99966.53;;;14.30;62.67
47726;BME280;33483;48.294;16.388;2024-02-16T11:39:54;99978.16;;;14.21;62.71
47726;BME280;33483;48.294;16.388;2024-02-16T11:42:22;99972.41;;;14.39;62.45
47726;BME280;33483;48.294;16.388;2024-02-16T11:44:52;99966.97;;;14.54;61.99
47726;BME280;33483;48.294;16.388;2024-02-16T11:47:21;99961.03;;;14.58;61.98
47726;BME280;33483;48.294;16.388;2024-02-16T11:52:31;99954.97;;;14.67;61.48
47726;BME280;33483;48.294;16.388;2024-02-16T11:54:59;99982.88;;;14.67;61.25
47726;BME280;33483;48.294;16.388;2024-02-16T11:57:32;99954.03;;;14.44;62.09
47726;BME280;33483;48.294;16.388;2024-02-16T12:00:02;99966.91;;;14.47;62.86
47726;BME280;33483;48.294;16.388;2024-02-16T12:02:36;99956.47;;;14.47;62.37
47726;BME280;33483;48.294;16.388;2024-02-16T12:05:04;99955.47;;;14.58;62.31
47726;BME280;33483;48.294;16.388;2024-02-16T12:07:32;99959.34;;;14.55;62.28
47726;BME280;33483;48.294;16.388;2024-02-16T12:10:02;99967.09;;;14.49;62.01
47726;BME280;33483;48.294;16.388;2024-02-16T12:12:34;99960.22;;;14.50;61.85
47726;BME280;33483;48.294;16.388;2024-02-16T12:15:02;99956.28;;;14.45;61.92
47726;BME280;33483;48.294;16.388;2024-02-16T12:17:30;99956.69;;;14.49;62.29
47726;BME280;33483;48.294;16.388;2024-02-16T12:20:00;99950.38;;;14.70;62.32
47726;BME280;33483;48.294;16.388;2024-02-16T12:22:27;99949.88;;;14.58;62.37
47726;BME280;33483;48.294;16.388;2024-02-16T12:24:54;99956.28;;;14.66;62.78
47726;BME280;33483;48.294;16.388;2024-02-16T12:27:23;99950.97;;;14.55;62.46
47726;BME280;33483;48.294;16.388;2024-02-16T12:29:50;99953.34;;;14.51;62.50
47726;BME280;33483;48.294;16.388;2024-02-16T12:32:17;99940.41;;;14.61;63.41
47726;BME280;33483;48.294;16.388;2024-02-16T12:34:46;99950.97;;;14.55;63.32
47726;BME280;33483;48.294;16.388;2024-02-16T12:37:18;99945.81;;;14.38;62.40
47726;BME280;33483;48.294;16.388;2024-02-16T12:39:45;99955.50;;;14.24;63.57
47726;BME280;33483;48.294;16.388;2024-02-16T12:42:17;99931.09;;;14.17;63.36
47726;BME280;33483;48.294;16.388;2024-02-16T12:44:44;99945.75;;;14.31;64.15
47726;BME280;33483;48.294;16.388;2024-02-16T12:47:12;99951.72;;;14.35;63.96
47726;BME280;33483;48.294;16.388;2024-02-16T12:49:40;99956.69;;;14.29;63.22
47726;BME280;33483;48.294;16.388;2024-02-16T12:52:08;99938.03;;;14.24;64.19
47726;BME280;33483;48.294;16.388;2024-02-16T12:54:35;99940.50;;;14.27;63.96
47726;BME280;33483;48.294;16.388;2024-02-16T12:57:05;99946.28;;;14.29;64.20